BIENTÔT MET'MAP
version 2.0 !

Prévue avant fin octobre,
la nouvelle version sera
plus belle, plus complète
et hébergée sur un serveur
3 fois plus puissant...
et toujours gratuite !


Pas compatible ?
Essayez la version Mobile !

SE CONNECTER : | S'inscrire | Disclaimer | Découvrir Orbifly |
Code OACI :
Lgende : VFR VFR Marginal IFR IFR Intensif IFR Trs Intensif
Visi :
Plafond :
>= 8 km
>= 3000ft
5 8 km
1000 3000 ft
1500m 5 km
500 1000 ft
800 1500m
200 500 ft
< 800m
< 200 ft

METAR - LHBP Budapest Ferihegy - 02 Jun 2020 08:23 UTC - Data Source NOAA   


- Altitude de l'aérodrome : 495 ft
- Code IATA : BUD
- Pas de NOTAMs connus.


LHBP - Budapest Ferihegy

Dernier METAR connu : 2015/08/11 08:00 LHBP 110800Z 07007KT 020V090 CAVOK 31/11 Q1014 NOSIG
TAF TAF LHBP
Valide du 02 à 06h jusqu'au 03 à 06h UTC


020515Z 0206/0306 29005KT CAVOK
BECMG 0207/0209 32016KT
TEMPO 0210/0215 09007KT -SHRA BKN035
BECMG 0215/0217 VRB03KT

Source NOAA


MET'MAP, la Météo Aéronautique d'un coup d'oeil ! - Copyright ORBIFLY Décembre 2007

Développement & Programmation : Alexandra Zaïnal
Co-Développement : Marc-Olivier Méhu
Soutien technique & logistique : Manuel Goepfert
Conception & Financement : Baudouin d'Aumeries